Time;durP1;ratioP1;P1;durP2;ratioP2;P2;SDS_P1;SDS_P2;PMS_P1;PMS_P2;Temp;Humidity;BMP_temperature;BMP_pressure;BME280_temperature;BME280_humidity;BME280_pressure;Samples;Min_cycle;Max_cycle;Signal;HPM_P1;HPM_P2
2021/07/15 00:00:52;;;;;;;19.55;14.70;;;;;;;26.55;52.99;99351.22;5011975;28;20133;-71
2021/07/15 00:03:21;;;;;;;17.27;13.77;;;;;;;26.50;53.38;99355.44;5029705;28;20132;-71
2021/07/15 00:05:46;;;;;;;20.63;14.20;;;;;;;26.60;52.97;99342.88;5029751;28;20034;-75
2021/07/15 00:08:16;;;;;;;21.83;14.23;;;;;;;26.62;52.90;99345.31;5032374;28;20075;-72
2021/07/15 00:10:50;;;;;;;19.02;14.02;;;;;;;26.67;52.86;99347.66;5015455;28;20516;-71
2021/07/15 00:13:15;;;;;;;18.45;13.20;;;;;;;26.71;52.39;99354.09;5033129;28;20513;-76
2021/07/15 00:15:44;;;;;;;16.60;14.30;;;;;;;26.66;52.63;99348.88;5033158;28;20038;-75
2021/07/15 00:18:12;;;;;;;17.85;13.75;;;;;;;26.52;52.96;99352.09;5033140;28;20490;-76
2021/07/15 00:20:44;;;;;;;16.55;13.57;;;;;;;26.53;53.23;99348.00;5032877;28;20106;-75
2021/07/15 00:23:11;;;;;;;21.45;12.55;;;;;;;26.44;53.36;99340.03;5033165;28;20034;-76
2021/07/15 00:25:37;;;;;;;15.65;13.10;;;;;;;26.48;53.28;99341.53;5032750;28;20022;-72
2021/07/15 00:28:03;;;;;;;19.60;13.40;;;;;;;26.38;53.52;99339.75;5015298;28;20037;-76
2021/07/15 00:30:29;;;;;;;18.02;13.55;;;;;;;26.13;54.35;99346.88;5015077;28;20439;-75
2021/07/15 00:32:54;;;;;;;18.50;13.30;;;;;;;26.13;54.77;99346.88;5014958;28;20170;-76
2021/07/15 00:35:20;;;;;;;18.38;14.20;;;;;;;25.98;55.07;99343.53;5015251;28;20415;-76
2021/07/15 00:37:46;;;;;;;16.73;12.35;;;;;;;25.91;55.60;99347.34;5032487;28;20076;-76
2021/07/15 00:40:15;;;;;;;14.32;12.82;;;;;;;25.95;55.45;99338.69;5015073;28;20095;-73
2021/07/15 00:42:40;;;;;;;15.30;12.23;;;;;;;25.98;55.55;99349.25;5032686;28;20053;-75
2021/07/15 00:45:08;;;;;;;15.40;11.77;;;;;;;25.97;55.57;99346.84;5014917;28;20056;-72
2021/07/15 00:47:33;;;;;;;13.63;11.77;;;;;;;25.87;55.63;99355.22;5032917;28;20030;-72
2021/07/15 00:49:59;;;;;;;18.65;12.95;;;;;;;25.95;55.75;99347.28;5032726;28;20022;-72
2021/07/15 00:52:24;;;;;;;17.25;12.43;;;;;;;25.90;56.08;99337.16;5032942;28;20103;-72
2021/07/15 00:54:51;;;;;;;14.05;12.60;;;;;;;25.97;55.52;99347.63;5014597;28;20037;-73
2021/07/15 00:57:17;;;;;;;18.58;12.82;;;;;;;25.91;55.80;99341.63;5014764;28;20030;-75
2021/07/15 00:59:43;;;;;;;17.48;12.65;;;;;;;25.91;55.42;99340.84;5014367;28;20163;-75
2021/07/15 01:02:08;;;;;;;21.25;13.23;;;;;;;25.86;55.94;99330.72;5032759;28;20498;-73
2021/07/15 01:04:35;;;;;;;21.45;13.07;;;;;;;25.71;56.61;99333.06;5014605;28;20029;-76
2021/07/15 01:07:00;;;;;;;17.13;13.25;;;;;;;25.70;56.78;99339.25;5014383;28;20111;-72
2021/07/15 01:09:26;;;;;;;14.80;12.70;;;;;;;25.56;57.49;99335.44;5032382;28;20491;-72
2021/07/15 01:12:43;;;;;;;17.90;13.15;;;;;;;25.47;57.52;99338.88;5032257;28;20040;-76
2021/07/15 01:15:12;;;;;;;20.23;13.52;;;;;;;25.50;57.00;99328.63;5010620;28;20510;-72
2021/07/15 01:17:51;;;;;;;15.20;13.60;;;;;;;25.39;56.88;99325.94;5031660;28;20037;-72
2021/07/15 01:20:37;;;;;;;17.45;13.43;;;;;;;25.41;56.75;99320.63;5014229;28;20030;-76
2021/07/15 01:23:21;;;;;;;22.27;13.10;;;;;;;25.46;56.48;99322.94;5031998;28;20120;-72
2021/07/15 01:26:08;;;;;;;19.58;14.57;;;;;;;25.35;56.80;99319.50;5031525;28;20061;-75
2021/07/15 01:29:09;;;;;;;15.45;13.95;;;;;;;25.14;56.71;99323.63;5014098;28;20060;-75
2021/07/15 01:31:39;;;;;;;22.38;15.43;;;;;;;25.04;57.14;99329.09;4987086;28;20045;-76
2021/07/15 01:34:09;;;;;;;19.58;14.82;;;;;;;25.07;56.84;99325.34;5013780;28;20406;-76
2021/07/15 01:36:35;;;;;;;23.48;14.98;;;;;;;25.18;56.62;99321.47;5013809;28;20041;-75
2021/07/15 01:39:12;;;;;;;22.67;13.85;;;;;;;25.17;56.84;99322.72;5013701;28;20029;-73
2021/07/15 01:41:47;;;;;;;20.77;13.32;;;;;;;25.23;56.92;99327.50;5031558;28;20499;-76
2021/07/15 01:44:23;;;;;;;21.05;15.25;;;;;;;25.33;56.37;99328.53;5031380;28;20045;-72
2021/07/15 01:46:50;;;;;;;21.50;14.88;;;;;;;25.31;56.36;99342.47;5031686;28;20044;-72
2021/07/15 01:49:17;;;;;;;21.52;15.40;;;;;;;24.91;57.09;99337.50;5013607;28;20021;-75
2021/07/15 01:51:43;;;;;;;20.40;15.90;;;;;;;24.88;57.16;99337.59;5013546;28;20040;-75
2021/07/15 01:54:09;;;;;;;23.00;18.25;;;;;;;24.64;58.18;99335.50;5031427;28;20021;-75
2021/07/15 01:56:37;;;;;;;20.83;17.27;;;;;;;24.54;58.66;99333.63;5031151;28;20415;-72
2021/07/15 01:59:05;;;;;;;24.38;18.35;;;;;;;24.48;59.15;99326.81;5030973;28;20078;-76
2021/07/15 02:01:33;;;;;;;20.17;17.73;;;;;;;24.40;59.23;99331.84;5031276;28;20108;-72
2021/07/15 02:04:01;;;;;;;39.33;19.13;;;;;;;24.33;59.28;99337.69;5030937;28;20100;-75
2021/07/15 02:06:28;;;;;;;22.17;18.38;;;;;;;24.10;59.64;99327.81;5013241;28;20030;-72
2021/07/15 02:08:54;;;;;;;26.02;18.33;;;;;;;24.02;59.63;99341.38;5031162;28;20031;-76
2021/07/15 02:11:22;;;;;;;26.10;19.10;;;;;;;23.93;59.79;99341.09;5031122;28;20025;-75
2021/07/15 02:13:48;;;;;;;20.63;17.90;;;;;;;23.88;59.79;99342.38;5030988;28;20021;-76
2021/07/15 02:16:16;;;;;;;25.05;18.17;;;;;;;23.95;60.10;99335.75;5030891;28;20534;-71
2021/07/15 02:18:44;;;;;;;23.90;17.90;;;;;;;24.06;59.74;99338.50;5030364;28;20424;-72
2021/07/15 02:21:11;;;;;;;25.60;19.75;;;;;;;23.97;60.04;99345.53;5030581;28;20067;-75
2021/07/15 02:23:37;;;;;;;29.10;20.33;;;;;;;23.90;60.49;99344.81;5030584;28;20036;-75
2021/07/15 02:26:06;;;;;;;29.45;21.40;;;;;;;23.91;60.07;99346.44;5030696;28;20029;-75
2021/07/15 02:28:33;;;;;;;20.13;17.67;;;;;;;23.91;59.96;99344.41;5030383;28;20379;-72
2021/07/15 02:31:05;;;;;;;24.63;19.85;;;;;;;24.02;59.51;99337.72;5030142;28;21050;-76
2021/07/15 02:33:32;;;;;;;26.20;20.63;;;;;;;23.90;60.23;99341.97;5030501;28;20017;-72
2021/07/15 02:36:01;;;;;;;25.02;19.42;;;;;;;23.90;59.91;99339.94;5012636;28;20041;-72
2021/07/15 02:38:30;;;;;;;25.05;18.13;;;;;;;24.07;59.77;99343.81;5030408;28;20029;-72
2021/07/15 02:40:56;;;;;;;25.77;17.75;;;;;;;24.04;59.41;99344.63;5030466;28;20128;-72
2021/07/15 02:43:22;;;;;;;24.55;18.35;;;;;;;23.89;60.16;99349.75;5030275;28;20128;-75
2021/07/15 02:45:47;;;;;;;30.65;19.10;;;;;;;23.93;59.95;99344.78;5030717;28;20033;-75
2021/07/15 02:48:16;;;;;;;26.15;18.70;;;;;;;23.92;60.40;99346.03;5012843;28;20083;-76
2021/07/15 02:50:42;;;;;;;24.80;19.15;;;;;;;23.90;60.66;99342.78;5030436;28;20033;-72
2021/07/15 02:53:07;;;;;;;33.35;18.92;;;;;;;23.83;60.93;99348.59;5030332;28;20051;-72
2021/07/15 02:55:33;;;;;;;39.17;19.55;;;;;;;23.67;61.29;99350.03;5012643;28;20022;-72
2021/07/15 02:58:16;;;;;;;31.40;19.55;;;;;;;23.63;61.39;99349.25;5030256;28;20108;-72
2021/07/15 03:00:50;;;;;;;35.28;20.13;;;;;;;23.68;61.02;99351.66;5016944;28;20094;-76
2021/07/15 03:03:46;;;;;;;25.70;18.95;;;;;;;23.89;60.70;99354.63;5030210;28;20029;-72
2021/07/15 03:06:14;;;;;;;21.77;17.92;;;;;;;23.61;60.92;99360.28;5029966;28;20410;-72
2021/07/15 03:08:53;;;;;;;22.52;17.92;;;;;;;23.65;61.04;99355.38;5030084;28;20033;-76
2021/07/15 03:11:20;;;;;;;41.58;20.42;;;;;;;23.73;61.03;99361.78;5012158;28;20551;-70
2021/07/15 03:13:46;;;;;;;34.40;18.15;;;;;;;23.72;60.87;99356.50;5012115;28;20029;-76
2021/07/15 03:16:14;;;;;;;35.78;19.65;;;;;;;23.67;61.16;99354.91;5029988;28;20469;-71
2021/07/15 03:18:43;;;;;;;32.88;19.33;;;;;;;23.77;61.07;99359.69;5029946;28;20061;-74
2021/07/15 03:21:10;;;;;;;220.75;31.40;;;;;;;23.84;61.08;99359.59;5030138;28;20167;-74
2021/07/15 03:23:40;;;;;;;38.80;18.63;;;;;;;23.86;60.90;99356.28;5030442;28;20028;-72
2021/07/15 03:26:07;;;;;;;38.90;20.02;;;;;;;23.75;61.13;99349.91;5029922;28;20029;-72
2021/07/15 03:28:35;;;;;;;34.13;19.83;;;;;;;23.69;61.33;99344.69;5029093;28;20021;-75
2021/07/15 03:31:05;;;;;;;33.63;21.17;;;;;;;23.83;61.38;99345.75;5028344;28;20033;-70
2021/07/15 03:33:33;;;;;;;29.90;19.45;;;;;;;23.90;61.08;99351.34;5026716;28;20017;-75
2021/07/15 03:35:59;;;;;;;23.90;18.23;;;;;;;23.97;61.34;99354.09;5010138;28;20022;-74
2021/07/15 03:38:25;;;;;;;27.80;19.17;;;;;;;23.95;60.87;99342.28;5027918;28;20491;-78
2021/07/15 03:40:51;;;;;;;34.30;19.75;;;;;;;24.02;60.51;99352.81;5027892;28;20041;-71
2021/07/15 03:43:18;;;;;;;25.73;18.75;;;;;;;24.07;59.99;99351.53;5031943;28;20041;-71
2021/07/15 03:45:45;;;;;;;20.35;17.23;;;;;;;24.07;59.92;99348.69;5033723;28;20038;-75
2021/07/15 03:48:11;;;;;;;22.35;18.35;;;;;;;24.15;59.55;99350.22;5015240;28;20021;-72
2021/07/15 03:50:37;;;;;;;30.70;19.23;;;;;;;24.15;59.11;99352.25;5033467;28;20036;-79
2021/07/15 03:53:05;;;;;;;29.52;19.08;;;;;;;24.03;59.21;99350.78;5033612;28;20451;-73
2021/07/15 03:55:35;;;;;;;25.50;17.33;;;;;;;24.08;59.34;99348.28;5020126;28;20410;-76
2021/07/15 03:58:05;;;;;;;25.00;19.77;;;;;;;24.03;59.68;99357.31;5015557;28;20041;-69
2021/07/15 04:00:30;;;;;;;;;;;;;;;24.08;59.40;99356.84;5029976;28;20057;-75
2021/07/15 04:03:01;;;;;;;28.17;19.13;;;;;;;24.10;59.54;99353.53;5031638;28;19953;-76
2021/07/15 04:05:32;;;;;;;33.63;19.35;;;;;;;24.18;59.69;99359.94;5032340;28;20025;-75
2021/07/15 04:07:59;;;;;;;23.85;18.80;;;;;;;24.25;59.39;99359.84;5032455;28;20022;-68
2021/07/15 04:10:27;;;;;;;22.48;18.25;;;;;;;24.33;59.78;99360.53;5032313;28;20513;-75
2021/07/15 04:12:57;;;;;;;26.05;20.30;;;;;;;24.35;59.65;99358.88;5032497;28;20487;-68
2021/07/15 04:15:30;;;;;;;33.93;19.63;;;;;;;24.48;59.69;99361.91;5032683;28;20025;-68
2021/07/15 04:17:59;;;;;;;38.83;19.75;;;;;;;24.45;59.97;99356.28;5033086;28;20029;-68
2021/07/15 04:20:26;;;;;;;31.30;19.27;;;;;;;24.55;59.67;99349.56;5015204;28;20049;-75
2021/07/15 04:22:56;;;;;;;31.92;18.90;;;;;;;24.58;59.74;99353.59;5032995;28;20147;-75
2021/07/15 04:25:23;;;;;;;28.45;18.77;;;;;;;24.62;59.46;99354.38;5032970;28;20487;-69
2021/07/15 04:27:59;;;;;;;36.20;18.63;;;;;;;24.70;59.45;99355.03;5019336;28;20033;-75
2021/07/15 04:30:25;;;;;;;31.27;18.20;;;;;;;24.75;58.70;99355.34;5032937;28;20033;-69
2021/07/15 04:33:04;;;;;;;32.58;18.30;;;;;;;24.84;58.11;99356.84;5032619;28;20078;-74
2021/07/15 04:35:32;;;;;;;33.42;19.08;;;;;;;24.87;57.70;99353.16;5015095;28;20120;-75
2021/07/15 04:38:00;;;;;;;27.38;18.95;;;;;;;24.62;58.74;99354.38;5032718;28;20033;-69
2021/07/15 04:40:27;;;;;;;28.70;20.00;;;;;;;24.54;59.58;99365.09;5014806;28;20416;-69
2021/07/15 04:42:58;;;;;;;33.65;20.48;;;;;;;24.58;59.57;99359.31;5032679;28;20042;-69
2021/07/15 04:45:25;;;;;;;77.00;25.25;;;;;;;24.64;59.58;99358.38;5032743;28;20466;-68
2021/07/15 04:47:52;;;;;;;38.88;25.23;;;;;;;24.70;59.72;99358.69;5032598;28;20033;-73
2021/07/15 04:50:20;;;;;;;33.40;23.67;;;;;;;24.66;60.06;99358.75;5014738;28;20030;-75
2021/07/15 04:52:49;;;;;;;40.10;24.70;;;;;;;24.70;59.85;99355.03;5031941;28;20471;-69
2021/07/15 04:55:19;;;;;;;32.13;23.13;;;;;;;24.71;59.55;99360.31;5032667;28;20022;-73
2021/07/15 04:57:45;;;;;;;43.22;25.58;;;;;;;24.71;59.58;99357.44;5032817;28;20034;-68
2021/07/15 05:00:12;;;;;;;42.63;24.00;;;;;;;24.73;59.77;99363.53;5032336;28;20079;-74
2021/07/15 05:02:39;;;;;;;37.22;23.50;;;;;;;24.56;59.96;99356.09;5032742;28;20033;-73
2021/07/15 05:05:10;;;;;;;43.63;25.38;;;;;;;24.76;59.73;99359.00;5032173;28;20021;-72
2021/07/15 05:07:36;;;;;;;38.60;23.52;;;;;;;24.85;59.42;99367.03;5032123;28;20064;-73
2021/07/15 05:10:06;;;;;;;35.50;22.25;;;;;;;24.72;59.77;99364.78;5032183;28;20513;-68
2021/07/15 05:12:32;;;;;;;36.33;23.52;;;;;;;24.79;59.51;99363.88;5000989;28;20042;-73
2021/07/15 05:14:57;;;;;;;44.63;23.45;;;;;;;24.74;59.47;99361.50;5032360;28;20026;-67
2021/07/15 05:17:22;;;;;;;39.88;23.75;;;;;;;24.83;59.87;99358.09;5014187;28;20483;-70
2021/07/15 05:19:50;;;;;;;30.48;23.45;;;;;;;24.94;58.96;99355.84;5031461;28;20045;-68
2021/07/15 05:22:16;;;;;;;26.70;19.95;;;;;;;25.09;58.65;99359.25;5014441;28;20049;-68
2021/07/15 05:24:42;;;;;;;25.95;20.35;;;;;;;25.17;58.69;99360.75;5014019;28;20040;-69
2021/07/15 05:27:07;;;;;;;33.78;20.85;;;;;;;25.31;58.19;99350.25;5031892;28;20045;-73
2021/07/15 05:29:33;;;;;;;33.90;21.00;;;;;;;25.36;57.73;99350.56;5031885;28;20040;-74
2021/07/15 05:31:59;;;;;;;40.33;22.55;;;;;;;25.51;57.92;99350.28;5014215;28;20032;-73
2021/07/15 05:34:24;;;;;;;29.35;21.33;;;;;;;25.64;57.56;99348.38;5031660;28;20032;-69
2021/07/15 05:36:49;;;;;;;30.13;19.65;;;;;;;25.59;57.18;99348.91;5031937;28;20427;-70
2021/07/15 05:39:15;;;;;;;27.20;17.83;;;;;;;25.66;56.48;99350.78;5031466;28;20045;-72
2021/07/15 05:41:41;;;;;;;28.10;19.63;;;;;;;25.75;56.67;99348.13;5031349;28;20088;-73
2021/07/15 05:44:06;;;;;;;28.13;18.35;;;;;;;25.76;56.61;99348.94;5013227;28;20049;-69
2021/07/15 05:46:31;;;;;;;21.58;16.25;;;;;;;25.89;56.58;99341.28;5030433;28;20119;-69
2021/07/15 05:48:57;;;;;;;27.02;16.90;;;;;;;25.97;56.47;99344.78;5011972;28;20467;-72
2021/07/15 05:51:22;;;;;;;25.52;18.30;;;;;;;26.05;56.51;99342.53;5031244;28;20036;-69
2021/07/15 05:53:48;;;;;;;23.85;18.67;;;;;;;26.17;56.44;99343.91;5029148;28;20520;-69
2021/07/15 05:56:13;;;;;;;25.13;17.98;;;;;;;26.18;56.12;99340.63;5031339;28;20025;-73
